sensor_id;sensor_type;location;lat;lon;timestamp;P1;durP1;ratioP1;P2;durP2;ratioP2
46561;SDS011;32289;42.688;23.330;2024-03-23T00:53:36;26.65;;;7.47;;
46561;SDS011;32289;42.688;23.330;2024-03-23T00:57:17;26.25;;;8.70;;
46561;SDS011;32289;42.688;23.330;2024-03-23T01:00:57;26.05;;;8.50;;
46561;SDS011;32289;42.688;23.330;2024-03-23T01:04:38;18.17;;;8.23;;
46561;SDS011;32289;42.688;23.330;2024-03-23T01:08:19;21.85;;;7.30;;
46561;SDS011;32289;42.688;23.330;2024-03-23T01:12:00;17.08;;;7.93;;
46561;SDS011;32289;42.688;23.330;2024-03-23T01:15:47;17.45;;;7.18;;
46561;SDS011;32289;42.688;23.330;2024-03-23T01:19:34;24.33;;;8.45;;
46561;SDS011;32289;42.688;23.330;2024-03-23T01:23:15;18.90;;;7.93;;
46561;SDS011;32289;42.688;23.330;2024-03-23T01:26:56;18.73;;;7.75;;
46561;SDS011;32289;42.688;23.330;2024-03-23T01:30:36;21.38;;;7.38;;
46561;SDS011;32289;42.688;23.330;2024-03-23T01:34:17;16.55;;;7.82;;
46561;SDS011;32289;42.688;23.330;2024-03-23T01:37:59;18.02;;;6.88;;
46561;SDS011;32289;42.688;23.330;2024-03-23T01:41:40;13.57;;;6.95;;
46561;SDS011;32289;42.688;23.330;2024-03-23T01:45:22;16.05;;;7.25;;
46561;SDS011;32289;42.688;23.330;2024-03-23T01:49:06;17.67;;;6.65;;
46561;SDS011;32289;42.688;23.330;2024-03-23T01:52:48;27.27;;;7.78;;
46561;SDS011;32289;42.688;23.330;2024-03-23T01:56:29;17.65;;;7.20;;
46561;SDS011;32289;42.688;23.330;2024-03-23T02:00:13;31.90;;;8.95;;
46561;SDS011;32289;42.688;23.330;2024-03-23T02:03:54;18.42;;;8.20;;
46561;SDS011;32289;42.688;23.330;2024-03-23T02:07:35;22.20;;;8.70;;
46561;SDS011;32289;42.688;23.330;2024-03-23T02:11:16;15.20;;;7.18;;
46561;SDS011;32289;42.688;23.330;2024-03-23T02:14:57;22.73;;;9.25;;
46561;SDS011;32289;42.688;23.330;2024-03-23T02:18:37;22.35;;;8.40;;
46561;SDS011;32289;42.688;23.330;2024-03-23T02:22:18;18.45;;;7.57;;
46561;SDS011;32289;42.688;23.330;2024-03-23T02:25:59;25.80;;;8.43;;
46561;SDS011;32289;42.688;23.330;2024-03-23T02:29:40;20.25;;;7.82;;
46561;SDS011;32289;42.688;23.330;2024-03-23T02:33:21;15.43;;;8.25;;
46561;SDS011;32289;42.688;23.330;2024-03-23T02:37:02;18.00;;;8.43;;
46561;SDS011;32289;42.688;23.330;2024-03-23T02:40:42;21.00;;;9.38;;
46561;SDS011;32289;42.688;23.330;2024-03-23T02:44:23;18.38;;;7.50;;
46561;SDS011;32289;42.688;23.330;2024-03-23T02:48:04;15.73;;;7.47;;
46561;SDS011;32289;42.688;23.330;2024-03-23T02:51:45;19.60;;;7.78;;
46561;SDS011;32289;42.688;23.330;2024-03-23T02:55:28;25.45;;;9.25;;
46561;SDS011;32289;42.688;23.330;2024-03-23T02:59:09;19.65;;;8.23;;
46561;SDS011;32289;42.688;23.330;2024-03-23T03:02:50;20.92;;;8.18;;
46561;SDS011;32289;42.688;23.330;2024-03-23T03:06:31;16.92;;;7.57;;
46561;SDS011;32289;42.688;23.330;2024-03-23T03:10:12;21.63;;;8.70;;
46561;SDS011;32289;42.688;23.330;2024-03-23T03:13:52;19.27;;;8.07;;
46561;SDS011;32289;42.688;23.330;2024-03-23T03:17:33;21.23;;;7.85;;
46561;SDS011;32289;42.688;23.330;2024-03-23T03:21:14;23.52;;;8.13;;
46561;SDS011;32289;42.688;23.330;2024-03-23T03:24:56;22.95;;;8.32;;
46561;SDS011;32289;42.688;23.330;2024-03-23T03:28:37;17.17;;;7.50;;
46561;SDS011;32289;42.688;23.330;2024-03-23T03:32:32;25.52;;;7.80;;
46561;SDS011;32289;42.688;23.330;2024-03-23T03:36:12;16.55;;;6.75;;
46561;SDS011;32289;42.688;23.330;2024-03-23T03:39:53;21.83;;;8.07;;
46561;SDS011;32289;42.688;23.330;2024-03-23T03:43:34;18.52;;;8.55;;
46561;SDS011;32289;42.688;23.330;2024-03-23T03:47:15;18.00;;;7.40;;
46561;SDS011;32289;42.688;23.330;2024-03-23T03:50:55;18.58;;;7.72;;
46561;SDS011;32289;42.688;23.330;2024-03-23T03:54:36;18.23;;;8.02;;
46561;SDS011;32289;42.688;23.330;2024-03-23T03:58:17;18.33;;;7.03;;
46561;SDS011;32289;42.688;23.330;2024-03-23T04:01:57;19.38;;;7.68;;
46561;SDS011;32289;42.688;23.330;2024-03-23T04:05:38;17.98;;;6.93;;
46561;SDS011;32289;42.688;23.330;2024-03-23T04:09:19;15.27;;;6.38;;
46561;SDS011;32289;42.688;23.330;2024-03-23T04:13:00;17.50;;;6.90;;
46561;SDS011;32289;42.688;23.330;2024-03-23T04:16:41;26.33;;;7.13;;
46561;SDS011;32289;42.688;23.330;2024-03-23T04:20:21;17.02;;;6.18;;
46561;SDS011;32289;42.688;23.330;2024-03-23T04:24:02;14.95;;;6.15;;
46561;SDS011;32289;42.688;23.330;2024-03-23T04:27:43;15.77;;;6.05;;
46561;SDS011;32289;42.688;23.330;2024-03-23T04:31:24;10.20;;;5.00;;
46561;SDS011;32289;42.688;23.330;2024-03-23T04:35:05;14.32;;;5.55;;
46561;SDS011;32289;42.688;23.330;2024-03-23T04:38:46;11.50;;;5.47;;
46561;SDS011;32289;42.688;23.330;2024-03-23T04:42:30;21.63;;;6.05;;
46561;SDS011;32289;42.688;23.330;2024-03-23T04:46:11;11.60;;;6.38;;
46561;SDS011;32289;42.688;23.330;2024-03-23T04:49:51;12.15;;;5.43;;
46561;SDS011;32289;42.688;23.330;2024-03-23T04:53:32;11.43;;;4.50;;
46561;SDS011;32289;42.688;23.330;2024-03-23T04:57:13;9.88;;;4.75;;
46561;SDS011;32289;42.688;23.330;2024-03-23T05:00:54;13.20;;;5.75;;
46561;SDS011;32289;42.688;23.330;2024-03-23T05:04:35;13.30;;;5.68;;
46561;SDS011;32289;42.688;23.330;2024-03-23T05:08:17;16.27;;;5.68;;
46561;SDS011;32289;42.688;23.330;2024-03-23T05:11:58;17.25;;;6.43;;
46561;SDS011;32289;42.688;23.330;2024-03-23T05:15:40;11.88;;;5.22;;
46561;SDS011;32289;42.688;23.330;2024-03-23T05:19:21;12.57;;;5.47;;
46561;SDS011;32289;42.688;23.330;2024-03-23T05:23:02;13.68;;;6.18;;
46561;SDS011;32289;42.688;23.330;2024-03-23T05:26:43;15.30;;;6.30;;
46561;SDS011;32289;42.688;23.330;2024-03-23T05:30:23;18.85;;;6.30;;
46561;SDS011;32289;42.688;23.330;2024-03-23T05:34:04;11.30;;;5.53;;
46561;SDS011;32289;42.688;23.330;2024-03-23T05:37:45;10.50;;;4.93;;
46561;SDS011;32289;42.688;23.330;2024-03-23T05:41:26;13.52;;;5.65;;
46561;SDS011;32289;42.688;23.330;2024-03-23T05:45:07;16.42;;;5.90;;
46561;SDS011;32289;42.688;23.330;2024-03-23T05:48:48;15.82;;;5.68;;
46561;SDS011;32289;42.688;23.330;2024-03-23T05:52:30;13.25;;;6.20;;
46561;SDS011;32289;42.688;23.330;2024-03-23T05:56:10;13.70;;;6.55;;
46561;SDS011;32289;42.688;23.330;2024-03-23T05:59:52;13.45;;;5.53;;
46561;SDS011;32289;42.688;23.330;2024-03-23T06:03:33;12.15;;;5.28;;
46561;SDS011;32289;42.688;23.330;2024-03-23T06:07:15;16.90;;;7.25;;
46561;SDS011;32289;42.688;23.330;2024-03-23T06:10:55;16.38;;;7.00;;
46561;SDS011;32289;42.688;23.330;2024-03-23T06:14:36;20.35;;;6.72;;
46561;SDS011;32289;42.688;23.330;2024-03-23T06:18:17;12.52;;;6.82;;
46561;SDS011;32289;42.688;23.330;2024-03-23T06:21:58;17.83;;;7.72;;
46561;SDS011;32289;42.688;23.330;2024-03-23T06:25:39;21.38;;;7.45;;
46561;SDS011;32289;42.688;23.330;2024-03-23T06:29:19;18.55;;;6.50;;
46561;SDS011;32289;42.688;23.330;2024-03-23T06:33:00;15.35;;;7.25;;
46561;SDS011;32289;42.688;23.330;2024-03-23T06:36:41;12.95;;;6.97;;
46561;SDS011;32289;42.688;23.330;2024-03-23T06:40:22;15.23;;;7.22;;
46561;SDS011;32289;42.688;23.330;2024-03-23T06:44:03;15.10;;;7.57;;
46561;SDS011;32289;42.688;23.330;2024-03-23T06:47:44;17.92;;;7.15;;
46561;SDS011;32289;42.688;23.330;2024-03-23T06:51:25;20.02;;;7.53;;
46561;SDS011;32289;42.688;23.330;2024-03-23T06:55:06;16.35;;;8.50;;
46561;SDS011;32289;42.688;23.330;2024-03-23T06:58:47;21.10;;;7.95;;
46561;SDS011;32289;42.688;23.330;2024-03-23T07:02:28;21.05;;;8.35;;
46561;SDS011;32289;42.688;23.330;2024-03-23T07:06:09;16.00;;;9.07;;
46561;SDS011;32289;42.688;23.330;2024-03-23T07:09:51;18.08;;;8.13;;
46561;SDS011;32289;42.688;23.330;2024-03-23T07:13:32;19.65;;;8.45;;
46561;SDS011;32289;42.688;23.330;2024-03-23T07:17:13;13.45;;;8.07;;
46561;SDS011;32289;42.688;23.330;2024-03-23T07:24:36;15.23;;;8.50;;
46561;SDS011;32289;42.688;23.330;2024-03-23T07:28:19;14.60;;;8.18;;
46561;SDS011;32289;42.688;23.330;2024-03-23T07:32:02;11.48;;;7.43;;
46561;SDS011;32289;42.688;23.330;2024-03-23T07:35:43;16.50;;;8.52;;
46561;SDS011;32289;42.688;23.330;2024-03-23T07:39:24;15.38;;;8.52;;
46561;SDS011;32289;42.688;23.330;2024-03-23T07:43:07;15.02;;;8.20;;
46561;SDS011;32289;42.688;23.330;2024-03-23T07:46:48;12.38;;;7.85;;
46561;SDS011;32289;42.688;23.330;2024-03-23T07:50:30;20.30;;;8.88;;
46561;SDS011;32289;42.688;23.330;2024-03-23T07:54:11;15.82;;;8.15;;
46561;SDS011;32289;42.688;23.330;2024-03-23T07:57:51;16.33;;;8.82;;
46561;SDS011;32289;42.688;23.330;2024-03-23T08:01:33;13.55;;;8.70;;
46561;SDS011;32289;42.688;23.330;2024-03-23T08:05:14;18.08;;;8.18;;
46561;SDS011;32289;42.688;23.330;2024-03-23T08:08:55;13.20;;;7.97;;
46561;SDS011;32289;42.688;23.330;2024-03-23T08:12:39;13.10;;;7.75;;
46561;SDS011;32289;42.688;23.330;2024-03-23T08:16:20;13.70;;;7.85;;
46561;SDS011;32289;42.688;23.330;2024-03-23T08:20:02;14.63;;;8.40;;
46561;SDS011;32289;42.688;23.330;2024-03-23T08:23:43;11.40;;;7.88;;
46561;SDS011;32289;42.688;23.330;2024-03-23T08:27:24;12.65;;;8.73;;
46561;SDS011;32289;42.688;23.330;2024-03-23T08:31:06;14.95;;;7.45;;
46561;SDS011;32289;42.688;23.330;2024-03-23T08:34:47;14.18;;;8.82;;
46561;SDS011;32289;42.688;23.330;2024-03-23T08:38:28;22.13;;;10.18;;
46561;SDS011;32289;42.688;23.330;2024-03-23T08:42:09;23.05;;;11.48;;
46561;SDS011;32289;42.688;23.330;2024-03-23T08:45:50;20.80;;;10.15;;
46561;SDS011;32289;42.688;23.330;2024-03-23T08:49:32;18.33;;;11.60;;
46561;SDS011;32289;42.688;23.330;2024-03-23T08:53:13;23.83;;;10.38;;
46561;SDS011;32289;42.688;23.330;2024-03-23T08:56:54;15.90;;;8.63;;
46561;SDS011;32289;42.688;23.330;2024-03-23T09:00:35;14.63;;;9.63;;
46561;SDS011;32289;42.688;23.330;2024-03-23T09:04:16;18.80;;;10.57;;
46561;SDS011;32289;42.688;23.330;2024-03-23T09:07:57;14.27;;;9.02;;
46561;SDS011;32289;42.688;23.330;2024-03-23T09:11:38;18.35;;;10.00;;
46561;SDS011;32289;42.688;23.330;2024-03-23T09:15:18;16.20;;;8.68;;
46561;SDS011;32289;42.688;23.330;2024-03-23T09:18:59;15.00;;;8.50;;
46561;SDS011;32289;42.688;23.330;2024-03-23T09:22:40;11.95;;;8.30;;
46561;SDS011;32289;42.688;23.330;2024-03-23T09:26:21;18.10;;;8.98;;
46561;SDS011;32289;42.688;23.330;2024-03-23T09:30:01;14.85;;;8.75;;
46561;SDS011;32289;42.688;23.330;2024-03-23T09:33:43;14.98;;;9.35;;
46561;SDS011;32289;42.688;23.330;2024-03-23T09:37:24;17.85;;;8.45;;
46561;SDS011;32289;42.688;23.330;2024-03-23T09:41:09;10.77;;;7.63;;
46561;SDS011;32289;42.688;23.330;2024-03-23T09:44:50;27.40;;;17.15;;
46561;SDS011;32289;42.688;23.330;2024-03-23T09:48:32;15.45;;;7.93;;
46561;SDS011;32289;42.688;23.330;2024-03-23T09:52:13;14.02;;;8.57;;
46561;SDS011;32289;42.688;23.330;2024-03-23T09:55:54;13.70;;;9.55;;
46561;SDS011;32289;42.688;23.330;2024-03-23T09:59:35;17.30;;;8.80;;
46561;SDS011;32289;42.688;23.330;2024-03-23T10:03:16;15.93;;;9.27;;
46561;SDS011;32289;42.688;23.330;2024-03-23T10:06:57;11.20;;;7.88;;
46561;SDS011;32289;42.688;23.330;2024-03-23T10:10:53;11.13;;;8.00;;
46561;SDS011;32289;42.688;23.330;2024-03-23T10:14:34;13.02;;;9.30;;
46561;SDS011;32289;42.688;23.330;2024-03-23T10:21:59;11.18;;;7.63;;
46561;SDS011;32289;42.688;23.330;2024-03-23T10:25:40;10.95;;;7.25;;
46561;SDS011;32289;42.688;23.330;2024-03-23T10:29:21;10.38;;;7.32;;
46561;SDS011;32289;42.688;23.330;2024-03-23T10:33:11;14.02;;;7.47;;
46561;SDS011;32289;42.688;23.330;2024-03-23T10:36:53;11.75;;;6.72;;
46561;SDS011;32289;42.688;23.330;2024-03-23T10:40:34;12.50;;;6.80;;
46561;SDS011;32289;42.688;23.330;2024-03-23T10:44:17;18.08;;;8.18;;
46561;SDS011;32289;42.688;23.330;2024-03-23T10:47:59;9.57;;;7.70;;
46561;SDS011;32289;42.688;23.330;2024-03-23T10:51:41;11.57;;;7.70;;
46561;SDS011;32289;42.688;23.330;2024-03-23T10:55:22;11.57;;;8.07;;
46561;SDS011;32289;42.688;23.330;2024-03-23T10:59:03;8.20;;;5.28;;
46561;SDS011;32289;42.688;23.330;2024-03-23T11:02:47;8.82;;;6.10;;
46561;SDS011;32289;42.688;23.330;2024-03-23T11:06:38;8.40;;;6.18;;
46561;SDS011;32289;42.688;23.330;2024-03-23T11:14:12;8.10;;;6.38;;
46561;SDS011;32289;42.688;23.330;2024-03-23T11:18:04;8.13;;;5.85;;
46561;SDS011;32289;42.688;23.330;2024-03-23T11:21:52;8.63;;;5.63;;
46561;SDS011;32289;42.688;23.330;2024-03-23T11:25:34;12.65;;;5.97;;
46561;SDS011;32289;42.688;23.330;2024-03-23T11:29:16;12.35;;;5.95;;
46561;SDS011;32289;42.688;23.330;2024-03-23T11:32:58;11.35;;;5.72;;
46561;SDS011;32289;42.688;23.330;2024-03-23T11:36:41;9.82;;;5.78;;
46561;SDS011;32289;42.688;23.330;2024-03-23T11:40:22;9.27;;;5.82;;
46561;SDS011;32289;42.688;23.330;2024-03-23T11:44:16;14.88;;;6.05;;
46561;SDS011;32289;42.688;23.330;2024-03-23T11:51:45;11.13;;;6.03;;
46561;SDS011;32289;42.688;23.330;2024-03-23T11:55:27;10.40;;;5.30;;
46561;SDS011;32289;42.688;23.330;2024-03-23T11:59:07;26.23;;;8.02;;
46561;SDS011;32289;42.688;23.330;2024-03-23T12:02:48;15.23;;;6.13;;
46561;SDS011;32289;42.688;23.330;2024-03-23T12:06:29;15.32;;;5.70;;
46561;SDS011;32289;42.688;23.330;2024-03-23T12:10:10;7.68;;;4.93;;
46561;SDS011;32289;42.688;23.330;2024-03-23T12:13:51;7.15;;;4.28;;
46561;SDS011;32289;42.688;23.330;2024-03-23T12:17:32;8.70;;;4.13;;
46561;SDS011;32289;42.688;23.330;2024-03-23T12:21:13;10.05;;;4.47;;
46561;SDS011;32289;42.688;23.330;2024-03-23T12:24:53;10.80;;;5.75;;
46561;SDS011;32289;42.688;23.330;2024-03-23T12:28:34;7.70;;;4.38;;
46561;SDS011;32289;42.688;23.330;2024-03-23T12:32:15;16.20;;;8.85;;
46561;SDS011;32289;42.688;23.330;2024-03-23T12:35:56;25.83;;;12.10;;
46561;SDS011;32289;42.688;23.330;2024-03-23T12:39:37;6.80;;;2.40;;
46561;SDS011;32289;42.688;23.330;2024-03-23T12:43:18;6.45;;;3.78;;
46561;SDS011;32289;42.688;23.330;2024-03-23T12:46:58;4.45;;;2.70;;
46561;SDS011;32289;42.688;23.330;2024-03-23T12:50:39;3.92;;;2.10;;
46561;SDS011;32289;42.688;23.330;2024-03-23T12:54:20;9.75;;;4.38;;
46561;SDS011;32289;42.688;23.330;2024-03-23T12:58:01;11.10;;;4.63;;
46561;SDS011;32289;42.688;23.330;2024-03-23T13:01:42;2.58;;;1.33;;
46561;SDS011;32289;42.688;23.330;2024-03-23T13:05:26;3.63;;;1.67;;
46561;SDS011;32289;42.688;23.330;2024-03-23T13:09:06;3.38;;;1.73;;
46561;SDS011;32289;42.688;23.330;2024-03-23T13:12:47;3.30;;;1.65;;
46561;SDS011;32289;42.688;23.330;2024-03-23T13:16:28;8.70;;;5.22;;
46561;SDS011;32289;42.688;23.330;2024-03-23T13:20:09;4.90;;;2.70;;
46561;SDS011;32289;42.688;23.330;2024-03-23T13:23:54;2.47;;;1.20;;
46561;SDS011;32289;42.688;23.330;2024-03-23T13:27:35;2.80;;;1.50;;
46561;SDS011;32289;42.688;23.330;2024-03-23T13:31:16;6.07;;;3.05;;
46561;SDS011;32289;42.688;23.330;2024-03-23T13:34:56;13.98;;;5.88;;
46561;SDS011;32289;42.688;23.330;2024-03-23T13:38:37;3.47;;;1.73;;
46561;SDS011;32289;42.688;23.330;2024-03-23T13:42:18;4.50;;;2.17;;
46561;SDS011;32289;42.688;23.330;2024-03-23T13:45:59;4.50;;;2.45;;
46561;SDS011;32289;42.688;23.330;2024-03-23T13:49:40;8.02;;;3.95;;
46561;SDS011;32289;42.688;23.330;2024-03-23T13:53:21;6.47;;;2.83;;
46561;SDS011;32289;42.688;23.330;2024-03-23T13:57:03;7.38;;;2.97;;
46561;SDS011;32289;42.688;23.330;2024-03-23T14:00:44;11.10;;;2.72;;
46561;SDS011;32289;42.688;23.330;2024-03-23T14:04:26;4.60;;;2.10;;
46561;SDS011;32289;42.688;23.330;2024-03-23T14:08:07;3.67;;;1.60;;
46561;SDS011;32289;42.688;23.330;2024-03-23T14:11:49;2.45;;;1.20;;
46561;SDS011;32289;42.688;23.330;2024-03-23T14:15:30;6.65;;;2.55;;
46561;SDS011;32289;42.688;23.330;2024-03-23T14:19:12;9.23;;;3.45;;
46561;SDS011;32289;42.688;23.330;2024-03-23T14:22:53;4.20;;;2.42;;
46561;SDS011;32289;42.688;23.330;2024-03-23T14:26:33;1.75;;;0.90;;
46561;SDS011;32289;42.688;23.330;2024-03-23T14:30:15;3.63;;;1.52;;
46561;SDS011;32289;42.688;23.330;2024-03-23T14:33:56;8.95;;;2.13;;
46561;SDS011;32289;42.688;23.330;2024-03-23T14:37:37;6.28;;;1.83;;
46561;SDS011;32289;42.688;23.330;2024-03-23T14:41:18;2.55;;;1.15;;
46561;SDS011;32289;42.688;23.330;2024-03-23T14:44:59;7.00;;;2.95;;
46561;SDS011;32289;42.688;23.330;2024-03-23T14:48:42;18.40;;;7.20;;
46561;SDS011;32289;42.688;23.330;2024-03-23T14:52:24;6.57;;;2.53;;
46561;SDS011;32289;42.688;23.330;2024-03-23T14:56:05;4.40;;;1.85;;
46561;SDS011;32289;42.688;23.330;2024-03-23T14:59:47;4.43;;;2.58;;
46561;SDS011;32289;42.688;23.330;2024-03-23T15:03:28;4.85;;;1.90;;
46561;SDS011;32289;42.688;23.330;2024-03-23T15:07:09;5.65;;;2.97;;
46561;SDS011;32289;42.688;23.330;2024-03-23T15:10:50;5.30;;;2.20;;
46561;SDS011;32289;42.688;23.330;2024-03-23T15:14:31;3.53;;;1.90;;
46561;SDS011;32289;42.688;23.330;2024-03-23T15:18:12;5.45;;;2.33;;
46561;SDS011;32289;42.688;23.330;2024-03-23T15:21:54;13.38;;;4.22;;
46561;SDS011;32289;42.688;23.330;2024-03-23T15:25:36;5.68;;;2.42;;
46561;SDS011;32289;42.688;23.330;2024-03-23T15:29:17;7.30;;;3.33;;
46561;SDS011;32289;42.688;23.330;2024-03-23T15:32:58;5.70;;;2.30;;
46561;SDS011;32289;42.688;23.330;2024-03-23T15:36:39;5.45;;;2.40;;
46561;SDS011;32289;42.688;23.330;2024-03-23T15:40:19;5.80;;;2.38;;
46561;SDS011;32289;42.688;23.330;2024-03-23T15:44:00;4.55;;;2.10;;
46561;SDS011;32289;42.688;23.330;2024-03-23T15:47:42;5.90;;;2.22;;
46561;SDS011;32289;42.688;23.330;2024-03-23T15:51:23;5.05;;;2.80;;
46561;SDS011;32289;42.688;23.330;2024-03-23T15:55:04;5.78;;;2.60;;
46561;SDS011;32289;42.688;23.330;2024-03-23T15:58:48;4.97;;;2.38;;
46561;SDS011;32289;42.688;23.330;2024-03-23T16:02:28;7.15;;;2.95;;
46561;SDS011;32289;42.688;23.330;2024-03-23T16:06:09;12.23;;;2.88;;
46561;SDS011;32289;42.688;23.330;2024-03-23T16:09:50;11.02;;;3.45;;
46561;SDS011;32289;42.688;23.330;2024-03-23T16:13:34;7.15;;;2.30;;
46561;SDS011;32289;42.688;23.330;2024-03-23T16:17:15;3.85;;;1.33;;
46561;SDS011;32289;42.688;23.330;2024-03-23T16:20:56;5.60;;;1.65;;
46561;SDS011;32289;42.688;23.330;2024-03-23T16:24:38;2.80;;;1.67;;
46561;SDS011;32289;42.688;23.330;2024-03-23T16:28:19;34.42;;;14.07;;
46561;SDS011;32289;42.688;23.330;2024-03-23T16:31:59;21.92;;;6.53;;
46561;SDS011;32289;42.688;23.330;2024-03-23T16:35:40;9.95;;;4.03;;
46561;SDS011;32289;42.688;23.330;2024-03-23T16:39:22;7.68;;;2.53;;
46561;SDS011;32289;42.688;23.330;2024-03-23T16:43:02;7.57;;;3.05;;
46561;SDS011;32289;42.688;23.330;2024-03-23T16:46:43;16.42;;;4.63;;
46561;SDS011;32289;42.688;23.330;2024-03-23T16:50:24;5.43;;;2.70;;
46561;SDS011;32289;42.688;23.330;2024-03-23T16:54:05;12.13;;;3.63;;
46561;SDS011;32289;42.688;23.330;2024-03-23T16:57:46;8.32;;;3.33;;
46561;SDS011;32289;42.688;23.330;2024-03-23T17:01:27;12.48;;;5.20;;
46561;SDS011;32289;42.688;23.330;2024-03-23T17:05:08;20.35;;;4.82;;
46561;SDS011;32289;42.688;23.330;2024-03-23T17:08:48;18.60;;;4.25;;
46561;SDS011;32289;42.688;23.330;2024-03-23T17:12:29;46.85;;;16.75;;
46561;SDS011;32289;42.688;23.330;2024-03-23T17:16:10;6.45;;;3.05;;
46561;SDS011;32289;42.688;23.330;2024-03-23T17:19:58;17.65;;;6.53;;
46561;SDS011;32289;42.688;23.330;2024-03-23T17:23:40;13.63;;;5.18;;
46561;SDS011;32289;42.688;23.330;2024-03-23T17:27:21;15.80;;;8.32;;
46561;SDS011;32289;42.688;23.330;2024-03-23T17:31:01;34.03;;;9.70;;
46561;SDS011;32289;42.688;23.330;2024-03-23T17:34:43;10.68;;;4.35;;
46561;SDS011;32289;42.688;23.330;2024-03-23T17:38:23;14.32;;;4.35;;
46561;SDS011;32289;42.688;23.330;2024-03-23T17:42:04;9.00;;;4.20;;
46561;SDS011;32289;42.688;23.330;2024-03-23T17:45:45;12.63;;;6.47;;
46561;SDS011;32289;42.688;23.330;2024-03-23T17:49:26;18.27;;;8.38;;
46561;SDS011;32289;42.688;23.330;2024-03-23T17:53:06;7.47;;;2.85;;
46561;SDS011;32289;42.688;23.330;2024-03-23T17:56:47;15.73;;;5.93;;
46561;SDS011;32289;42.688;23.330;2024-03-23T18:00:28;9.95;;;3.50;;
46561;SDS011;32289;42.688;23.330;2024-03-23T18:04:15;8.38;;;3.25;;
46561;SDS011;32289;42.688;23.330;2024-03-23T18:07:57;7.15;;;3.38;;
46561;SDS011;32289;42.688;23.330;2024-03-23T18:11:37;6.97;;;2.83;;
46561;SDS011;32289;42.688;23.330;2024-03-23T18:15:18;11.38;;;3.13;;
46561;SDS011;32289;42.688;23.330;2024-03-23T18:18:59;8.23;;;2.53;;
46561;SDS011;32289;42.688;23.330;2024-03-23T18:22:39;17.48;;;5.40;;
46561;SDS011;32289;42.688;23.330;2024-03-23T18:26:21;11.13;;;5.55;;
46561;SDS011;32289;42.688;23.330;2024-03-23T18:30:03;18.92;;;6.70;;
46561;SDS011;32289;42.688;23.330;2024-03-23T18:33:44;23.02;;;9.88;;
46561;SDS011;32289;42.688;23.330;2024-03-23T18:37:25;17.15;;;6.72;;
46561;SDS011;32289;42.688;23.330;2024-03-23T18:41:07;19.23;;;6.97;;
46561;SDS011;32289;42.688;23.330;2024-03-23T18:44:47;20.10;;;8.32;;
46561;SDS011;32289;42.688;23.330;2024-03-23T18:48:28;18.95;;;8.30;;
46561;SDS011;32289;42.688;23.330;2024-03-23T18:52:11;11.50;;;5.47;;
46561;SDS011;32289;42.688;23.330;2024-03-23T18:55:52;12.98;;;5.70;;
46561;SDS011;32289;42.688;23.330;2024-03-23T18:59:34;34.40;;;14.13;;
46561;SDS011;32289;42.688;23.330;2024-03-23T19:03:15;55.70;;;21.63;;
46561;SDS011;32289;42.688;23.330;2024-03-23T19:06:55;17.90;;;7.78;;
46561;SDS011;32289;42.688;23.330;2024-03-23T19:10:36;16.13;;;6.90;;
46561;SDS011;32289;42.688;23.330;2024-03-23T19:14:17;9.25;;;4.95;;
46561;SDS011;32289;42.688;23.330;2024-03-23T19:17:58;28.58;;;13.35;;
46561;SDS011;32289;42.688;23.330;2024-03-23T19:21:38;31.38;;;12.60;;
46561;SDS011;32289;42.688;23.330;2024-03-23T19:25:19;14.23;;;6.97;;
46561;SDS011;32289;42.688;23.330;2024-03-23T19:29:00;14.27;;;5.90;;
46561;SDS011;32289;42.688;23.330;2024-03-23T19:32:41;29.38;;;10.70;;
46561;SDS011;32289;42.688;23.330;2024-03-23T19:36:22;15.65;;;7.45;;
46561;SDS011;32289;42.688;23.330;2024-03-23T19:40:02;11.57;;;4.75;;
46561;SDS011;32289;42.688;23.330;2024-03-23T19:43:43;17.48;;;5.80;;
46561;SDS011;32289;42.688;23.330;2024-03-23T19:47:24;9.52;;;4.43;;
46561;SDS011;32289;42.688;23.330;2024-03-23T19:51:05;8.88;;;4.25;;
46561;SDS011;32289;42.688;23.330;2024-03-23T19:54:46;8.60;;;4.25;;
46561;SDS011;32289;42.688;23.330;2024-03-23T19:58:26;10.45;;;4.50;;
46561;SDS011;32289;42.688;23.330;2024-03-23T20:02:07;10.02;;;4.60;;
46561;SDS011;32289;42.688;23.330;2024-03-23T20:05:58;9.15;;;4.72;;
46561;SDS011;32289;42.688;23.330;2024-03-23T20:09:39;11.38;;;5.30;;
46561;SDS011;32289;42.688;23.330;2024-03-23T20:13:20;12.98;;;5.07;;
46561;SDS011;32289;42.688;23.330;2024-03-23T20:17:00;13.68;;;4.82;;
46561;SDS011;32289;42.688;23.330;2024-03-23T20:20:42;14.10;;;4.80;;
46561;SDS011;32289;42.688;23.330;2024-03-23T20:24:24;8.52;;;4.13;;
46561;SDS011;32289;42.688;23.330;2024-03-23T20:28:06;17.65;;;4.65;;
46561;SDS011;32289;42.688;23.330;2024-03-23T20:31:47;7.55;;;4.30;;
46561;SDS011;32289;42.688;23.330;2024-03-23T20:35:28;8.73;;;4.45;;
46561;SDS011;32289;42.688;23.330;2024-03-23T20:39:09;9.35;;;4.32;;
46561;SDS011;32289;42.688;23.330;2024-03-23T20:42:51;7.30;;;3.97;;
46561;SDS011;32289;42.688;23.330;2024-03-23T20:46:32;12.50;;;3.97;;
46561;SDS011;32289;42.688;23.330;2024-03-23T20:50:12;6.50;;;3.80;;
46561;SDS011;32289;42.688;23.330;2024-03-23T20:53:53;11.90;;;4.53;;
46561;SDS011;32289;42.688;23.330;2024-03-23T20:57:34;37.42;;;8.38;;
46561;SDS011;32289;42.688;23.330;2024-03-23T21:01:14;17.40;;;5.78;;
46561;SDS011;32289;42.688;23.330;2024-03-23T21:04:55;9.55;;;4.40;;
46561;SDS011;32289;42.688;23.330;2024-03-23T21:08:36;18.25;;;5.00;;
46561;SDS011;32289;42.688;23.330;2024-03-23T21:12:17;10.35;;;4.30;;
46561;SDS011;32289;42.688;23.330;2024-03-23T21:15:57;13.32;;;4.22;;
46561;SDS011;32289;42.688;23.330;2024-03-23T21:19:42;25.80;;;5.85;;
46561;SDS011;32289;42.688;23.330;2024-03-23T21:23:29;13.15;;;4.60;;
46561;SDS011;32289;42.688;23.330;2024-03-23T21:27:11;10.00;;;4.17;;
46561;SDS011;32289;42.688;23.330;2024-03-23T21:30:52;10.68;;;3.88;;
46561;SDS011;32289;42.688;23.330;2024-03-23T21:34:33;9.25;;;4.60;;
46561;SDS011;32289;42.688;23.330;2024-03-23T21:38:14;11.90;;;4.18;;
46561;SDS011;32289;42.688;23.330;2024-03-23T21:41:55;11.38;;;4.10;;
46561;SDS011;32289;42.688;23.330;2024-03-23T21:45:35;10.07;;;4.15;;
46561;SDS011;32289;42.688;23.330;2024-03-23T21:49:16;6.68;;;3.63;;
46561;SDS011;32289;42.688;23.330;2024-03-23T21:52:57;13.02;;;3.67;;
46561;SDS011;32289;42.688;23.330;2024-03-23T21:56:37;11.18;;;5.43;;
46561;SDS011;32289;42.688;23.330;2024-03-23T22:00:19;8.73;;;4.28;;
46561;SDS011;32289;42.688;23.330;2024-03-23T22:04:00;9.98;;;4.15;;
46561;SDS011;32289;42.688;23.330;2024-03-23T22:07:40;13.15;;;3.95;;
46561;SDS011;32289;42.688;23.330;2024-03-23T22:11:21;12.52;;;5.88;;
46561;SDS011;32289;42.688;23.330;2024-03-23T22:15:02;11.73;;;4.57;;
46561;SDS011;32289;42.688;23.330;2024-03-23T22:18:43;8.05;;;3.78;;
46561;SDS011;32289;42.688;23.330;2024-03-23T22:22:24;7.90;;;3.40;;
46561;SDS011;32289;42.688;23.330;2024-03-23T22:26:04;9.23;;;3.15;;
46561;SDS011;32289;42.688;23.330;2024-03-23T22:29:46;9.00;;;3.47;;
46561;SDS011;32289;42.688;23.330;2024-03-23T22:33:27;10.63;;;3.95;;
46561;SDS011;32289;42.688;23.330;2024-03-23T22:37:08;10.48;;;4.45;;
46561;SDS011;32289;42.688;23.330;2024-03-23T22:40:53;11.43;;;5.25;;
46561;SDS011;32289;42.688;23.330;2024-03-23T22:44:35;18.00;;;5.95;;